Time;durP1;ratioP1;P1;durP2;ratioP2;P2;SDS_P1;SDS_P2;PMS_P1;PMS_P2;Temp;Humidity;BMP_temperature;BMP_pressure;BME280_temperature;BME280_humidity;BME280_pressure;Samples;Min_cycle;Max_cycle;Signal;HPM_P1;HPM_P2
2023/04/23 00:02:05;;;;;;;;;;;;;;;6.42;71.41;100923.85;107560;1257;68097;-79
2023/04/23 00:04:33;;;;;;;;;;;;;;;6.44;71.42;100920.43;107399;1261;71098;-80
2023/04/23 00:07:01;;;;;;;;;;;;;;;6.43;71.54;100922.13;107290;1263;124817;-84
2023/04/23 00:09:32;;;;;;;;;;;;;;;6.42;71.47;100918.27;107552;1257;61225;-83
2023/04/23 00:12:01;;;;;;;;;;;;;;;6.42;71.52;100915.84;107182;1257;124904;-83
2023/04/23 00:14:44;;;;;;;;;;;;;;;6.42;71.58;100912.17;107269;1259;67062;-84
2023/04/23 00:17:15;;;;;;;;;;;;;;;6.43;71.64;100909.24;107006;1256;70691;-83
2023/04/23 00:20:01;;;;;;;;;;;;;;;6.46;71.61;100909.86;107137;1262;124737;-83
2023/04/23 00:22:35;;;;;;;;;;;;;;;6.47;71.71;100907.83;107299;1256;59910;-83
2023/04/23 00:25:14;;;;;;;;;;;;;;;6.47;71.64;100904.00;107215;1260;124767;-84
2023/04/23 00:28:18;;;;;;;;;;;;;;;6.46;71.54;100899.58;106940;1256;65600;-83
2023/04/23 00:30:47;;;;;;;;;;;;;;;6.42;71.56;100901.89;107048;1257;124688;-86
2023/04/23 00:33:14;;;;;;;;;;;;;;;6.40;71.55;100899.54;107482;1256;60133;-79
2023/04/23 00:35:41;;;;;;;;;;;;;;;6.38;71.62;100899.44;107531;1256;125363;-79
2023/04/23 00:38:09;;;;;;;;;;;;;;;6.37;71.47;100895.70;107454;1256;74468;-79
2023/04/23 00:40:42;;;;;;;;;;;;;;;6.36;71.59;100895.85;107573;1256;65750;-79
2023/04/23 00:43:10;;;;;;;;;;;;;;;6.33;71.56;100893.81;107466;1257;124642;-79
2023/04/23 00:45:38;;;;;;;;;;;;;;;6.31;71.68;100890.56;107433;1256;59454;-84
2023/04/23 00:48:12;;;;;;;;;;;;;;;6.29;71.80;100893.80;107894;1256;125198;-83
2023/04/23 00:50:40;;;;;;;;;;;;;;;6.26;71.63;100893.83;107645;1256;74676;-79
2023/04/23 00:56:25;;;;;;;;;;;;;;;6.22;71.73;100893.33;107530;1260;72483;-79
2023/04/23 00:58:53;;;;;;;;;;;;;;;6.18;71.67;100891.07;107563;1259;59978;-79
2023/04/23 01:01:20;;;;;;;;;;;;;;;6.16;71.59;100885.55;107185;1256;124734;-79
2023/04/23 01:03:47;;;;;;;;;;;;;;;6.14;71.65;100888.09;107797;1256;73517;-83
2023/04/23 01:06:24;;;;;;;;;;;;;;;6.12;71.80;100885.02;107645;1257;124996;-83
2023/04/23 01:09:00;;;;;;;;;;;;;;;6.10;71.77;100885.10;107518;1256;71604;-84
2023/04/23 01:11:34;;;;;;;;;;;;;;;6.04;71.64;100882.07;107775;1256;60429;-83
2023/04/23 01:14:14;;;;;;;;;;;;;;;6.03;71.79;100881.33;107513;1256;124598;-83
2023/04/23 01:16:49;;;;;;;;;;;;;;;6.03;71.90;100879.77;107162;1256;74621;-83
2023/04/23 01:19:16;;;;;;;;;;;;;;;6.03;71.96;100879.73;107040;1256;124799;-83
2023/04/23 01:21:53;;;;;;;;;;;;;;;6.02;71.98;100874.11;107204;1256;72580;-83
2023/04/23 01:24:23;;;;;;;;;;;;;;;6.00;71.89;100873.36;107460;1256;125155;-82
2023/04/23 01:26:57;;;;;;;;;;;;;;;5.97;71.77;100872.67;107221;1256;60439;-83
2023/04/23 01:29:24;;;;;;;;;;;;;;;5.97;71.92;100874.24;106914;1262;74680;-83
2023/04/23 01:31:51;;;;;;;;;;;;;;;5.97;71.98;100871.80;107169;1258;125250;-83
2023/04/23 01:34:18;;;;;;;;;;;;;;;5.96;72.04;100871.03;107482;1256;72566;-79
2023/04/23 01:36:45;;;;;;;;;;;;;;;5.94;71.89;100874.60;107509;1258;125292;-79
2023/04/23 01:39:12;;;;;;;;;;;;;;;5.92;71.90;100875.54;108767;1259;60145;-79
2023/04/23 01:45:18;;;;;;;;;;;;;;;5.85;71.91;100870.70;107515;1256;65813;-83
2023/04/23 01:48:03;;;;;;;;;;;;;;;5.82;71.87;100866.04;107535;1256;70263;-83
2023/04/23 01:50:37;;;;;;;;;;;;;;;5.80;71.88;100867.36;107638;1256;60701;-83
2023/04/23 01:53:07;;;;;;;;;;;;;;;5.80;72.05;100864.88;107719;1256;59340;-83
2023/04/23 01:55:37;;;;;;;;;;;;;;;5.78;71.98;100865.69;107739;1256;124787;-83
2023/04/23 01:58:04;;;;;;;;;;;;;;;5.75;72.07;100863.98;107421;1256;65938;-84
2023/04/23 02:00:40;;;;;;;;;;;;;;;5.73;71.94;100863.20;107204;1256;71435;-84
2023/04/23 02:03:07;;;;;;;;;;;;;;;5.72;72.17;100857.41;107536;1256;61479;-83
2023/04/23 02:05:36;;;;;;;;;;;;;;;5.71;72.09;100858.40;107532;1256;60600;-83
2023/04/23 02:08:13;;;;;;;;;;;;;;;5.70;72.09;100859.90;107408;1258;125528;-84
2023/04/23 02:10:46;;;;;;;;;;;;;;;5.68;72.16;100855.98;107992;1256;66422;-83
2023/04/23 02:13:13;;;;;;;;;;;;;;;5.65;72.15;100857.29;108039;1257;124993;-81
2023/04/23 02:15:42;;;;;;;;;;;;;;;5.64;72.12;100853.20;108022;1256;59552;-80
2023/04/23 02:18:09;;;;;;;;;;;;;;;5.63;72.21;100851.95;108122;1257;125373;-80
2023/04/23 02:20:39;;;;;;;;;;;;;;;5.62;72.34;100850.85;108757;1257;74556;-80
2023/04/23 02:23:06;;;;;;;;;;;;;;;5.60;72.35;100848.52;108853;1256;65840;-81
2023/04/23 02:25:33;;;;;;;;;;;;;;;5.59;72.32;100846.71;108764;1257;124550;-86
2023/04/23 02:28:04;;;;;;;;;;;;;;;5.56;72.35;100843.45;108874;1256;59108;-88
2023/04/23 02:30:31;;;;;;;;;;;;;;;5.55;72.35;100842.67;107736;1257;125010;-86
2023/04/23 02:32:59;;;;;;;;;;;;;;;5.55;72.47;100840.58;107726;1261;73161;-86
2023/04/23 02:35:42;;;;;;;;;;;;;;;5.53;72.41;100842.61;107559;1257;65782;-84
2023/04/23 02:38:15;;;;;;;;;;;;;;;5.53;72.49;100842.04;107418;1257;124843;-83
2023/04/23 02:40:42;;;;;;;;;;;;;;;5.52;72.48;100838.38;107447;1256;61323;-84
2023/04/23 02:43:20;;;;;;;;;;;;;;;5.52;72.49;100837.83;107494;1256;124721;-83
2023/04/23 02:46:07;;;;;;;;;;;;;;;5.49;72.54;100836.15;107556;1256;73836;-84
2023/04/23 02:58:00;;;;;;;;;;;;;;;5.37;72.46;100824.11;107673;1256;59482;-84
2023/04/23 03:00:34;;;;;;;;;;;;;;;5.37;72.43;100824.95;107866;1256;124763;-84
2023/04/23 03:03:03;;;;;;;;;;;;;;;5.36;72.52;100821.60;107884;1256;67057;-84
2023/04/23 03:05:30;;;;;;;;;;;;;;;5.35;72.59;100822.07;108182;1257;72701;-84
2023/04/23 03:08:15;;;;;;;;;;;;;;;5.34;72.63;100823.77;108149;1256;124678;-84
2023/04/23 03:10:54;;;;;;;;;;;;;;;5.34;72.68;100822.04;108198;1260;60142;-84
2023/04/23 03:13:28;;;;;;;;;;;;;;;5.35;72.76;100824.52;108028;1257;124756;-84
2023/04/23 03:15:55;;;;;;;;;;;;;;;5.36;72.79;100821.98;107979;1261;65505;-80
2023/04/23 03:18:22;;;;;;;;;;;;;;;5.36;72.70;100820.08;107951;1261;125045;-80
2023/04/23 03:20:49;;;;;;;;;;;;;;;5.36;72.60;100814.45;107872;1260;60083;-80
2023/04/23 03:23:16;;;;;;;;;;;;;;;5.35;72.76;100815.09;108018;1256;62052;-80
2023/04/23 03:25:43;;;;;;;;;;;;;;;5.34;72.68;100812.66;107820;1256;124614;-80
2023/04/23 03:28:11;;;;;;;;;;;;;;;5.34;72.72;100810.57;108403;1258;67040;-80
2023/04/23 03:30:38;;;;;;;;;;;;;;;5.35;72.70;100810.61;107702;1257;124754;-84
2023/04/23 03:33:06;;;;;;;;;;;;;;;5.37;72.66;100810.01;107793;1260;59661;-80
2023/04/23 03:35:32;;;;;;;;;;;;;;;5.38;72.65;100812.86;107924;1261;59615;-80
2023/04/23 03:38:00;;;;;;;;;;;;;;;5.40;72.68;100812.57;108600;1256;124699;-80
2023/04/23 03:40:27;;;;;;;;;;;;;;;5.44;72.78;100809.11;108858;1260;66787;-80
2023/04/23 03:42:54;;;;;;;;;;;;;;;5.47;72.79;100809.42;108544;1257;125214;-89
2023/04/23 03:45:21;;;;;;;;;;;;;;;5.53;72.78;100806.90;108059;1257;59578;-87
2023/04/23 03:47:48;;;;;;;;;;;;;;;5.58;72.79;100801.41;107835;1257;59924;-89
2023/04/23 03:50:16;;;;;;;;;;;;;;;5.69;72.99;100803.83;107536;1256;124568;-89
2023/04/23 03:52:43;;;;;;;;;;;;;;;6.14;73.79;100801.98;107389;1257;67615;-88
2023/04/23 03:55:11;;;;;;;;;;;;;;;6.94;74.23;100799.44;107374;1259;124087;-90
2023/04/23 03:57:38;;;;;;;;;;;;;;;7.86;74.14;100795.79;107847;1256;61111;-88
2023/04/23 04:00:07;;;;;;;;;;;;;;;8.76;73.57;100799.63;107895;1263;124351;-86
2023/04/23 04:02:45;;;;;;;;;;;;;;;9.68;72.72;100798.84;107933;1256;74336;-87
2023/04/23 04:05:58;;;;;;;;;;;;;;;10.58;71.81;100787.97;107624;1256;67319;-86
2023/04/23 04:08:58;;;;;;;;;;;;;;;11.75;70.69;100781.39;107460;1260;72413;-86
2023/04/23 04:11:30;;;;;;;;;;;;;;;12.84;69.23;100779.00;107627;1257;60294;-85
2023/04/23 04:13:58;;;;;;;;;;;;;;;13.66;67.83;100775.83;107834;1256;124028;-81
2023/04/23 04:16:46;;;;;;;;;;;;;;;14.49;66.92;100770.75;107873;1256;75225;-88
2023/04/23 04:19:13;;;;;;;;;;;;;;;15.35;65.39;100772.46;107613;1260;124156;-83
2023/04/23 04:21:40;;;;;;;;;;;;;;;16.05;64.18;100767.48;107753;1256;72719;-83
2023/04/23 04:24:10;;;;;;;;;;;;;;;16.74;63.13;100761.56;107448;1258;124220;-85
2023/04/23 04:26:44;;;;;;;;;;;;;;;17.50;62.01;100762.52;107756;1263;61228;-81
2023/04/23 04:29:15;;;;;;;;;;;;;;;18.33;60.93;100753.61;107923;1257;73485;-80
2023/04/23 04:31:43;;;;;;;;;;;;;;;19.06;59.84;100753.03;107885;1258;124635;-81
2023/04/23 04:34:13;;;;;;;;;;;;;;;19.92;58.76;100751.17;107909;1261;71037;-81
2023/04/23 04:36:41;;;;;;;;;;;;;;;20.67;57.24;100749.17;107951;1259;124290;-82
2023/04/23 04:39:08;;;;;;;;;;;;;;;21.31;55.92;100748.94;107898;1257;59900;-81
2023/04/23 04:41:35;;;;;;;;;;;;;;;21.90;54.79;100747.58;107853;1258;73424;-83
2023/04/23 04:44:02;;;;;;;;;;;;;;;22.54;53.61;100745.95;107818;1260;124070;-82
2023/04/23 04:46:30;;;;;;;;;;;;;;;23.14;52.53;100743.34;107979;1257;72742;-82
2023/04/23 04:48:57;;;;;;;;;;;;;;;23.77;51.70;100744.64;107527;1262;124667;-82
2023/04/23 04:51:25;;;;;;;;;;;;;;;24.18;50.21;100743.58;107788;1257;59925;-81
2023/04/23 04:53:54;;;;;;;;;;;;;;;24.58;49.32;100738.18;107702;1257;74533;-85
2023/04/23 04:56:24;;;;;;;;;;;;;;;24.97;48.35;100740.63;107197;1257;124776;-84
2023/04/23 04:59:13;;;;;;;;;;;;;;;25.39;47.34;100738.45;107453;1257;71358;-85
2023/04/23 05:01:40;;;;;;;;;;;;;;;25.87;46.52;100735.59;107224;1257;124555;-83
2023/04/23 05:04:07;;;;;;;;;;;;;;;26.25;45.75;100731.76;108033;1257;60120;-80
2023/04/23 05:06:34;;;;;;;;;;;;;;;26.65;44.96;100728.88;107635;1257;124969;-82
2023/04/23 05:09:03;;;;;;;;;;;;;;;26.94;44.26;100724.57;107563;1260;59651;-81
2023/04/23 05:11:30;;;;;;;;;;;;;;;27.28;43.71;100725.63;107814;1260;62839;-82
2023/04/23 05:13:58;;;;;;;;;;;;;;;27.67;42.84;100725.83;107845;1257;124195;-81
2023/04/23 05:16:26;;;;;;;;;;;;;;;27.79;42.00;100724.56;108148;1257;59527;-82
2023/04/23 05:18:53;;;;;;;;;;;;;;;27.74;41.34;100719.90;108040;1262;124425;-82
2023/04/23 05:21:23;;;;;;;;;;;;;;;27.04;40.34;100719.42;107785;1258;59493;-81
2023/04/23 05:23:50;;;;;;;;;;;;;;;25.89;39.71;100721.08;107901;1260;63747;-81
2023/04/23 05:26:19;;;;;;;;;;;;;;;24.41;39.49;100724.70;107844;1257;124633;-80
2023/04/23 05:28:48;;;;;;;;;;;;;;;23.04;39.80;100723.18;107863;1256;59526;-80
2023/04/23 05:31:15;;;;;;;;;;;;;;;21.79;40.28;100727.27;107869;1257;124583;-81
2023/04/23 05:33:43;;;;;;;;;;;;;;;20.74;41.00;100723.38;107977;1257;65997;-82
2023/04/23 05:36:10;;;;;;;;;;;;;;;19.82;41.48;100722.27;107790;1257;124831;-80
2023/04/23 05:38:37;;;;;;;;;;;;;;;18.99;42.26;100721.45;108101;1258;59595;-81
2023/04/23 05:41:05;;;;;;;;;;;;;;;18.32;42.94;100721.83;108059;1257;60671;-80
2023/04/23 05:43:31;;;;;;;;;;;;;;;17.74;43.60;100725.88;107627;1257;124177;-80
2023/04/23 05:45:58;;;;;;;;;;;;;;;17.21;44.13;100729.45;107746;1257;65474;-80
2023/04/23 05:48:26;;;;;;;;;;;;;;;16.69;44.59;100725.24;107947;1257;124787;-83
2023/04/23 05:50:55;;;;;;;;;;;;;;;16.27;45.20;100721.49;108358;1256;59703;-83
2023/04/23 05:53:22;;;;;;;;;;;;;;;15.87;45.74;100722.32;108229;1257;60554;-83
2023/04/23 05:55:50;;;;;;;;;;;;;;;15.56;46.30;100717.05;108099;1258;124149;-81
2023/04/23 05:58:18;;;;;;;;;;;;;;;15.25;46.65;100718.84;108484;1257;66938;-82
2023/04/23 06:00:45;;;;;;;;;;;;;;;14.97;47.14;100714.80;107766;1260;124451;-83
2023/04/23 06:03:12;;;;;;;;;;;;;;;14.77;47.68;100713.59;108452;1257;59425;-84
2023/04/23 06:05:41;;;;;;;;;;;;;;;14.57;47.90;100713.61;107782;1256;61144;-85
2023/04/23 06:08:09;;;;;;;;;;;;;;;14.37;48.46;100712.36;107555;1256;124329;-86
2023/04/23 06:10:42;;;;;;;;;;;;;;;14.24;48.94;100714.19;107484;1257;64867;-86
2023/04/23 06:13:09;;;;;;;;;;;;;;;14.12;49.26;100714.42;107478;1257;124316;-86
2023/04/23 06:15:37;;;;;;;;;;;;;;;13.97;49.48;100709.69;108042;1257;59371;-82
2023/04/23 06:18:04;;;;;;;;;;;;;;;13.78;49.84;100707.37;107885;1258;124955;-83
2023/04/23 06:20:31;;;;;;;;;;;;;;;13.64;50.11;100705.79;108095;1258;74706;-83
2023/04/23 06:22:58;;;;;;;;;;;;;;;13.52;50.66;100704.23;108060;1257;65760;-83
2023/04/23 06:25:25;;;;;;;;;;;;;;;13.47;51.02;100704.36;107745;1257;124139;-85
2023/04/23 06:27:52;;;;;;;;;;;;;;;13.41;51.07;100709.91;107435;1257;59429;-84
2023/04/23 06:30:19;;;;;;;;;;;;;;;13.34;51.51;100704.73;107619;1257;124789;-80
2023/04/23 06:32:46;;;;;;;;;;;;;;;13.31;51.83;100705.73;107963;1257;73456;-81
2023/04/23 06:35:13;;;;;;;;;;;;;;;13.28;52.19;100702.14;108022;1256;65758;-81
2023/04/23 06:37:40;;;;;;;;;;;;;;;13.27;52.62;100703.36;108074;1257;124197;-81
2023/04/23 06:40:07;;;;;;;;;;;;;;;13.32;52.92;100707.33;108310;1257;59783;-81
2023/04/23 06:42:34;;;;;;;;;;;;;;;13.34;53.31;100700.48;108114;1257;124816;-81
2023/04/23 06:45:03;;;;;;;;;;;;;;;13.41;53.66;100705.52;108059;1257;74707;-80
2023/04/23 06:47:30;;;;;;;;;;;;;;;13.48;53.98;100702.08;108318;1256;67992;-80
2023/04/23 06:49:58;;;;;;;;;;;;;;;13.56;54.15;100699.88;108472;1258;125111;-80
2023/04/23 06:52:25;;;;;;;;;;;;;;;13.65;54.31;100694.34;107665;1257;60331;-81
2023/04/23 06:54:52;;;;;;;;;;;;;;;13.73;54.48;100695.33;107800;1257;124608;-82
2023/04/23 06:57:20;;;;;;;;;;;;;;;13.83;54.55;100690.48;108145;1257;74683;-82
2023/04/23 06:59:47;;;;;;;;;;;;;;;13.93;54.62;100683.17;108053;1258;67630;-82
2023/04/23 07:02:14;;;;;;;;;;;;;;;14.03;54.68;100679.23;107907;1256;123974;-81
2023/04/23 07:04:41;;;;;;;;;;;;;;;14.14;54.53;100676.16;107883;1256;60270;-81
2023/04/23 07:07:12;;;;;;;;;;;;;;;14.25;54.49;100673.95;107753;1256;124105;-81
2023/04/23 07:09:39;;;;;;;;;;;;;;;14.35;54.40;100671.92;107865;1258;73380;-82
2023/04/23 07:12:24;;;;;;;;;;;;;;;14.45;54.48;100668.83;107674;1257;125144;-85
2023/04/23 07:14:53;;;;;;;;;;;;;;;14.58;54.32;100665.78;107664;1257;72738;-85
2023/04/23 07:17:28;;;;;;;;;;;;;;;14.69;54.06;100661.27;107495;1256;61021;-84
2023/04/23 07:19:57;;;;;;;;;;;;;;;14.79;54.11;100660.98;107317;1257;128077;-85
2023/04/23 07:22:27;;;;;;;;;;;;;;;14.90;54.11;100661.92;107482;1257;73429;-86
2023/04/23 07:24:56;;;;;;;;;;;;;;;15.02;53.96;100662.34;107351;1257;124172;-85
2023/04/23 07:27:23;;;;;;;;;;;;;;;15.13;53.62;100657.64;107424;1260;72411;-85
2023/04/23 07:29:50;;;;;;;;;;;;;;;15.22;53.33;100654.67;107448;1257;60362;-86
2023/04/23 07:32:18;;;;;;;;;;;;;;;15.32;53.13;100652.94;107658;1261;123965;-83
2023/04/23 07:34:45;;;;;;;;;;;;;;;15.42;53.02;100645.18;107883;1257;73183;-82
2023/04/23 07:37:12;;;;;;;;;;;;;;;15.51;52.82;100644.52;107822;1256;124819;-82
2023/04/23 07:39:41;;;;;;;;;;;;;;;15.58;52.77;100632.70;107755;1257;71784;-83
2023/04/23 07:42:08;;;;;;;;;;;;;;;15.70;52.77;100636.96;107735;1260;124807;-82
2023/04/23 07:44:35;;;;;;;;;;;;;;;15.78;52.56;100632.05;108003;1257;60163;-80
2023/04/23 07:47:03;;;;;;;;;;;;;;;15.86;52.55;100631.01;108043;1257;73428;-85
2023/04/23 07:49:30;;;;;;;;;;;;;;;15.95;52.61;100632.42;107712;1256;124176;-84
2023/04/23 07:51:57;;;;;;;;;;;;;;;16.04;52.40;100627.85;107943;1257;70394;-84
2023/04/23 07:54:24;;;;;;;;;;;;;;;16.11;52.33;100622.70;108058;1257;124421;-80
2023/04/23 07:56:53;;;;;;;;;;;;;;;16.20;52.36;100617.75;107678;1257;61308;-82
2023/04/23 07:59:20;;;;;;;;;;;;;;;16.28;51.94;100617.04;108074;1256;75021;-82
2023/04/23 08:01:47;;;;;;;;;;;;;;;16.34;51.92;100618.10;107634;1256;124308;-81
2023/04/23 08:04:14;;;;;;;;;;;;;;;16.41;51.82;100615.79;107900;1257;72609;-81
2023/04/23 08:06:41;;;;;;;;;;;;;;;16.49;51.69;100614.17;107811;1258;124517;-82
2023/04/23 08:09:08;;;;;;;;;;;;;;;16.57;51.56;100612.58;107709;1257;60096;-83
2023/04/23 08:11:35;;;;;;;;;;;;;;;16.64;51.50;100609.38;107666;1256;73829;-82
2023/04/23 08:14:02;;;;;;;;;;;;;;;16.72;51.30;100606.17;107485;1257;124188;-82
2023/04/23 08:16:30;;;;;;;;;;;;;;;16.78;51.14;100603.13;107558;1256;71451;-82
2023/04/23 08:19:04;;;;;;;;;;;;;;;16.86;51.16;100597.47;107510;1258;124036;-81
2023/04/23 08:21:31;;;;;;;;;;;;;;;16.96;50.89;100599.23;107684;1257;61260;-84
2023/04/23 08:23:58;;;;;;;;;;;;;;;17.02;50.87;100597.06;107676;1256;125093;-81
2023/04/23 08:26:25;;;;;;;;;;;;;;;17.12;50.86;100594.73;107693;1257;67057;-81
2023/04/23 08:28:52;;;;;;;;;;;;;;;17.21;50.63;100593.79;107556;1256;72237;-81
2023/04/23 08:31:19;;;;;;;;;;;;;;;17.30;50.38;100587.71;107546;1256;124497;-81
2023/04/23 08:33:46;;;;;;;;;;;;;;;17.39;50.17;100587.15;107767;1258;60920;-84
2023/04/23 08:36:14;;;;;;;;;;;;;;;17.47;50.12;100582.29;107577;1257;125027;-82
2023/04/23 08:38:49;;;;;;;;;;;;;;;17.56;50.03;100579.05;107599;1257;67123;-85
2023/04/23 08:41:17;;;;;;;;;;;;;;;17.64;50.05;100578.29;108031;1257;73082;-84
2023/04/23 08:43:46;;;;;;;;;;;;;;;17.72;49.93;100573.80;107699;1257;124432;-83
2023/04/23 08:46:14;;;;;;;;;;;;;;;17.80;49.88;100569.30;108060;1256;61273;-82
2023/04/23 08:48:43;;;;;;;;;;;;;;;17.88;49.95;100563.06;108058;1257;124950;-83
2023/04/23 08:51:11;;;;;;;;;;;;;;;17.95;49.93;100562.12;108141;1257;64793;-82
2023/04/23 08:53:38;;;;;;;;;;;;;;;18.02;49.85;100561.34;108164;1256;72690;-83
2023/04/23 08:56:06;;;;;;;;;;;;;;;18.10;49.77;100559.67;108023;1257;124801;-81
2023/04/23 08:58:39;;;;;;;;;;;;;;;18.16;50.13;100558.56;107652;1256;59525;-82
2023/04/23 09:01:06;;;;;;;;;;;;;;;18.26;49.92;100559.88;107443;1256;124788;-80
2023/04/23 09:03:34;;;;;;;;;;;;;;;18.34;49.72;100558.20;107297;1256;66063;-81
2023/04/23 09:06:01;;;;;;;;;;;;;;;18.42;49.71;100554.38;107107;1257;124935;-81
2023/04/23 09:08:28;;;;;;;;;;;;;;;18.52;49.58;100554.12;107299;1257;61629;-81
2023/04/23 09:10:55;;;;;;;;;;;;;;;18.58;49.52;100555.83;107435;1262;59811;-81
2023/04/23 09:13:22;;;;;;;;;;;;;;;18.63;49.25;100550.98;107335;1256;124214;-81
2023/04/23 09:15:49;;;;;;;;;;;;;;;18.69;49.16;100545.04;107347;1256;65903;-81
2023/04/23 09:18:16;;;;;;;;;;;;;;;18.74;49.02;100548.17;107363;1257;125068;-81
2023/04/23 09:20:50;;;;;;;;;;;;;;;18.80;48.89;100544.75;107449;1257;59224;-81
2023/04/23 09:23:17;;;;;;;;;;;;;;;18.86;48.99;100545.05;107369;1257;59514;-81
2023/04/23 09:25:44;;;;;;;;;;;;;;;18.92;48.99;100541.41;107258;1257;124572;-81
2023/04/23 09:28:13;;;;;;;;;;;;;;;18.98;48.99;100539.54;107372;1256;66040;-80
2023/04/23 09:30:43;;;;;;;;;;;;;;;19.03;48.81;100536.64;107162;1257;124210;-82
2023/04/23 09:33:11;;;;;;;;;;;;;;;19.09;48.84;100536.74;107175;1257;60172;-82
2023/04/23 09:35:40;;;;;;;;;;;;;;;19.17;48.46;100536.46;107242;1256;61244;-81
2023/04/23 09:38:09;;;;;;;;;;;;;;;19.25;48.24;100538.66;107082;1256;124490;-81
2023/04/23 09:40:37;;;;;;;;;;;;;;;19.30;48.12;100534.14;107270;1256;66072;-82
2023/04/23 09:43:06;;;;;;;;;;;;;;;19.40;48.20;100534.52;107256;1256;124028;-82
2023/04/23 09:45:34;;;;;;;;;;;;;;;19.47;47.79;100534.23;107531;1256;61419;-82
2023/04/23 09:48:01;;;;;;;;;;;;;;;19.53;47.50;100530.23;107451;1256;124814;-82
2023/04/23 09:50:32;;;;;;;;;;;;;;;19.58;47.45;100525.52;107319;1257;73231;-80
2023/04/23 09:52:59;;;;;;;;;;;;;;;19.65;47.23;100523.30;107387;1256;65828;-81
2023/04/23 09:55:33;;;;;;;;;;;;;;;19.70;47.02;100521.06;107337;1257;124858;-80
2023/04/23 09:58:03;;;;;;;;;;;;;;;19.75;47.05;100514.96;107458;1256;59214;-81
2023/04/23 10:00:35;;;;;;;;;;;;;;;19.82;47.11;100511.28;107153;1256;124312;-81
2023/04/23 10:03:03;;;;;;;;;;;;;;;19.91;46.96;100507.94;107382;1256;74975;-80
2023/04/23 10:05:30;;;;;;;;;;;;;;;19.93;46.83;100506.30;107553;1262;66829;-80
2023/04/23 10:07:57;;;;;;;;;;;;;;;19.95;46.67;100493.80;107590;1260;124823;-81
2023/04/23 10:10:24;;;;;;;;;;;;;;;20.00;46.66;100492.46;107959;1262;60381;-81
2023/04/23 10:12:55;;;;;;;;;;;;;;;20.05;46.60;100492.02;108032;1256;124109;-81
2023/04/23 10:15:22;;;;;;;;;;;;;;;20.09;46.47;100488.92;108828;1256;74740;-81
2023/04/23 10:17:49;;;;;;;;;;;;;;;20.13;46.30;100481.89;108883;1256;65753;-81
2023/04/23 10:20:16;;;;;;;;;;;;;;;20.18;46.37;100475.02;108818;1256;124104;-82
2023/04/23 10:22:45;;;;;;;;;;;;;;;20.24;45.99;100475.08;108926;1256;59455;-81
2023/04/23 10:25:12;;;;;;;;;;;;;;;20.30;46.07;100468.39;108758;1261;125051;-81
2023/04/23 10:27:41;;;;;;;;;;;;;;;20.37;45.95;100461.65;108882;1256;75037;-81
2023/04/23 10:30:08;;;;;;;;;;;;;;;20.45;45.82;100462.74;108790;1256;124392;-81
2023/04/23 10:32:36;;;;;;;;;;;;;;;20.49;45.56;100459.63;108894;1256;73072;-81
2023/04/23 10:35:03;;;;;;;;;;;;;;;20.52;45.22;100457.41;108855;1256;59148;-81
2023/04/23 10:37:30;;;;;;;;;;;;;;;20.57;44.89;100453.56;108765;1256;124462;-84
2023/04/23 10:39:59;;;;;;;;;;;;;;;20.60;44.51;100452.65;107892;1256;74292;-83
2023/04/23 10:42:26;;;;;;;;;;;;;;;20.64;44.75;100444.20;107527;1256;124623;-90
2023/04/23 10:44:54;;;;;;;;;;;;;;;20.71;44.86;100447.79;107745;1257;71980;-82
2023/04/23 10:47:22;;;;;;;;;;;;;;;20.81;44.77;100446.32;108052;1262;59421;-82
2023/04/23 10:49:50;;;;;;;;;;;;;;;20.86;44.22;100439.44;107848;1256;124239;-81
2023/04/23 10:52:17;;;;;;;;;;;;;;;20.89;43.84;100436.86;107523;1256;74380;-83
2023/04/23 10:54:48;;;;;;;;;;;;;;;20.92;43.80;100432.52;107565;1257;124535;-81
2023/04/23 10:57:19;;;;;;;;;;;;;;;20.95;43.43;100430.67;107701;1257;72806;-81
2023/04/23 10:59:53;;;;;;;;;;;;;;;20.94;43.24;100436.75;107887;1256;61356;-82
2023/04/23 11:02:31;;;;;;;;;;;;;;;20.95;43.41;100431.55;107384;1256;124591;-82
2023/04/23 11:05:02;;;;;;;;;;;;;;;21.00;43.44;100426.28;107619;1256;72222;-83
2023/04/23 11:07:29;;;;;;;;;;;;;;;21.04;43.35;100423.50;107454;1256;124911;-85
2023/04/23 11:10:03;;;;;;;;;;;;;;;21.07;43.37;100420.05;107732;1256;72719;-82
2023/04/23 11:12:42;;;;;;;;;;;;;;;21.06;42.94;100419.17;107759;1256;124643;-81
2023/04/23 11:15:14;;;;;;;;;;;;;;;21.07;42.61;100420.41;107531;1256;61230;-84
2023/04/23 11:17:41;;;;;;;;;;;;;;;21.08;42.18;100411.83;107584;1257;74383;-83
2023/04/23 11:20:14;;;;;;;;;;;;;;;21.08;42.21;100411.11;107589;1256;124741;-80
2023/04/23 11:22:46;;;;;;;;;;;;;;;21.12;42.48;100409.94;107855;1256;72448;-82
2023/04/23 11:25:14;;;;;;;;;;;;;;;21.16;42.37;100406.09;107600;1258;124987;-83
2023/04/23 11:27:42;;;;;;;;;;;;;;;21.17;42.48;100404.81;107967;1257;61150;-83
2023/04/23 11:30:13;;;;;;;;;;;;;;;21.22;41.41;100396.68;107731;1258;124485;-81
2023/04/23 11:32:40;;;;;;;;;;;;;;;21.23;40.75;100398.79;107815;1256;67115;-81
2023/04/23 11:35:08;;;;;;;;;;;;;;;21.22;40.02;100385.27;107679;1257;71782;-81
2023/04/23 11:37:44;;;;;;;;;;;;;;;21.23;39.70;100392.72;107536;1257;124711;-80
2023/04/23 11:40:12;;;;;;;;;;;;;;;21.28;39.31;100391.16;107770;1256;60218;-80
2023/04/23 11:42:41;;;;;;;;;;;;;;;21.32;38.49;100391.24;107524;1256;124443;-80
2023/04/23 11:45:26;;;;;;;;;;;;;;;21.33;38.36;100391.04;107518;1256;65926;-79
2023/04/23 11:47:55;;;;;;;;;;;;;;;21.34;38.21;100383.69;107681;1256;71286;-80
2023/04/23 11:50:28;;;;;;;;;;;;;;;21.31;37.59;100380.20;108763;1256;124409;-80
2023/04/23 11:52:56;;;;;;;;;;;;;;;21.31;37.54;100385.75;108938;1256;59859;-80
2023/04/23 11:55:23;;;;;;;;;;;;;;;21.33;37.03;100380.88;108310;1257;124402;-80
2023/04/23 11:57:51;;;;;;;;;;;;;;;21.31;36.76;100380.57;107514;1257;67212;-80
2023/04/23 12:00:21;;;;;;;;;;;;;;;21.31;36.83;100383.24;107479;1256;124233;-79
2023/04/23 12:02:51;;;;;;;;;;;;;;;21.31;37.10;100380.02;107994;1256;60470;-81
2023/04/23 12:05:22;;;;;;;;;;;;;;;21.31;37.21;100379.85;108200;1259;61414;-81
2023/04/23 12:07:50;;;;;;;;;;;;;;;21.30;37.33;100375.77;107808;1257;124924;-80
2023/04/23 12:10:18;;;;;;;;;;;;;;;21.31;37.23;100374.85;108000;1256;65009;-81
2023/04/23 12:12:49;;;;;;;;;;;;;;;21.34;37.28;100371.20;107887;1256;125215;-81
2023/04/23 12:15:16;;;;;;;;;;;;;;;21.32;37.23;100368.75;107891;1256;278018;-81
2023/04/23 12:17:47;;;;;;;;;;;;;;;21.31;37.22;100369.85;108233;1256;60685;-80
2023/04/23 12:20:18;;;;;;;;;;;;;;;21.36;37.33;100369.55;108222;1256;124281;-83
2023/04/23 12:22:45;;;;;;;;;;;;;;;21.41;37.36;100367.11;108047;1256;65834;-80
2023/04/23 12:25:12;;;;;;;;;;;;;;;21.41;37.13;100365.86;107433;1256;125171;-82
2023/04/23 12:27:39;;;;;;;;;;;;;;;21.41;37.05;100363.18;107714;1256;59527;-83
2023/04/23 12:30:08;;;;;;;;;;;;;;;21.42;36.84;100365.83;108077;1256;124557;-80
2023/04/23 12:32:35;;;;;;;;;;;;;;;21.45;36.77;100356.83;108065;1256;74888;-80
2023/04/23 12:35:05;;;;;;;;;;;;;;;21.51;36.69;100354.71;107987;1256;65590;-79
2023/04/23 12:37:34;;;;;;;;;;;;;;;21.59;36.92;100355.42;107870;1256;124771;-80
2023/04/23 12:40:01;;;;;;;;;;;;;;;21.66;36.83;100349.70;108165;1256;60303;-80
2023/04/23 12:42:28;;;;;;;;;;;;;;;21.70;36.80;100349.76;108172;1256;124607;-79
2023/04/23 12:45:03;;;;;;;;;;;;;;;21.77;36.48;100345.64;107920;1256;75450;-81
2023/04/23 12:47:30;;;;;;;;;;;;;;;21.82;36.49;100347.29;107910;1258;67054;-81
2023/04/23 12:50:00;;;;;;;;;;;;;;;21.86;36.54;100341.10;107973;1256;124916;-81
2023/04/23 12:52:27;;;;;;;;;;;;;;;21.87;36.53;100335.17;108215;1259;59992;-80
2023/04/23 12:54:56;;;;;;;;;;;;;;;21.85;36.76;100327.19;108012;1256;124703;-80